Time;durP1;ratioP1;P1;durP2;ratioP2;P2;SDS_P1;SDS_P2;PMS_P1;PMS_P2;Temp;Humidity;BMP_temperature;BMP_pressure;BME280_temperature;BME280_humidity;BME280_pressure;Samples;Min_cycle;Max_cycle;Signal;HPM_P1;HPM_P2
2022/06/02 00:01:27;;;;;;;0.13;0.13;;;;;;;;;;5049861;28;20140;-67
2022/06/02 00:03:59;;;;;;;0.10;0.10;;;;;;;;;;5048894;28;20094;-67
2022/06/02 00:06:38;;;;;;;0.20;0.10;;;;;;;;;;5045438;28;20045;-67
2022/06/02 00:09:11;;;;;;;0.05;0.05;;;;;;;;;;5049106;28;20532;-67
2022/06/02 00:11:50;;;;;;;0.10;0.10;;;;;;;;;;5049559;28;20076;-67
2022/06/02 00:14:20;;;;;;;0.32;0.10;;;;;;;;;;5056058;28;20087;-67
2022/06/02 00:16:54;;;;;;;0.10;0.10;;;;;;;;;;5054401;28;20123;-68
2022/06/02 00:19:27;;;;;;;0.30;0.30;;;;;;;;;;5052336;28;20536;-67
2022/06/02 00:21:59;;;;;;;0.32;0.32;;;;;;;;;;5049546;28;20092;-67
2022/06/02 00:24:35;;;;;;;0.10;0.10;;;;;;;;;;5047564;28;20081;-67
2022/06/02 00:27:06;;;;;;;0.08;0.08;;;;;;;;;;5048828;28;20045;-67
2022/06/02 00:29:38;;;;;;;0.10;0.10;;;;;;;;;;5052999;28;20483;-67
2022/06/02 00:32:12;;;;;;;0.00;0.00;;;;;;;;;;5049628;28;20064;-67
2022/06/02 00:34:44;;;;;;;0.00;0.00;;;;;;;;;;5050199;28;20044;-67
2022/06/02 00:37:18;;;;;;;0.10;0.10;;;;;;;;;;5044593;28;20632;-68
2022/06/02 00:39:48;;;;;;;0.10;0.10;;;;;;;;;;5051127;28;20140;-67
2022/06/02 00:42:27;;;;;;;0.20;0.20;;;;;;;;;;5048738;28;20079;-67
2022/06/02 00:44:56;;;;;;;0.03;0.03;;;;;;;;;;5045959;28;20448;-67
2022/06/02 00:47:33;;;;;;;0.00;0.00;;;;;;;;;;5049111;28;20124;-67
2022/06/02 00:50:04;;;;;;;0.00;0.00;;;;;;;;;;5045208;28;20172;-67
2022/06/02 00:52:34;;;;;;;0.00;0.00;;;;;;;;;;5048873;28;20052;-67
2022/06/02 00:58:01;;;;;;;0.20;0.20;;;;;;;;;;5050445;28;20132;-67
2022/06/02 01:00:35;;;;;;;0.10;0.10;;;;;;;;;;5049590;28;20048;-67
2022/06/02 01:03:08;;;;;;;0.10;0.10;;;;;;;;;;5048612;28;20091;-67
2022/06/02 01:05:45;;;;;;;0.10;0.10;;;;;;;;;;5047081;28;20081;-67
2022/06/02 01:08:18;;;;;;;0.00;0.00;;;;;;;;;;5048325;28;20131;-67
2022/06/02 01:10:50;;;;;;;0.20;0.20;;;;;;;;;;5050351;28;20084;-67
2022/06/02 01:13:26;;;;;;;0.00;0.00;;;;;;;;;;5052307;28;20506;-67
2022/06/02 01:15:59;;;;;;;0.13;0.13;;;;;;;;;;5049907;28;20127;-67
2022/06/02 01:18:33;;;;;;;0.50;0.50;;;;;;;;;;5048266;28;20049;-67
2022/06/02 01:21:14;;;;;;;0.00;0.00;;;;;;;;;;5047497;28;20099;-67
2022/06/02 01:23:54;;;;;;;0.10;0.10;;;;;;;;;;5049671;28;20049;-67
2022/06/02 01:26:32;;;;;;;0.10;0.10;;;;;;;;;;5048159;28;20142;-67
2022/06/02 01:29:03;;;;;;;0.10;0.10;;;;;;;;;;5048600;28;20463;-67
2022/06/02 01:31:40;;;;;;;0.00;0.00;;;;;;;;;;5048242;28;20123;-67
2022/06/02 01:34:14;;;;;;;0.15;0.15;;;;;;;;;;5045928;28;20068;-67
2022/06/02 01:36:45;;;;;;;0.47;0.47;;;;;;;;;;5049810;28;20069;-67
2022/06/02 01:39:22;;;;;;;0.00;0.00;;;;;;;;;;5050690;28;20139;-67
2022/06/02 01:41:57;;;;;;;0.00;0.00;;;;;;;;;;5050104;28;20052;-67
2022/06/02 01:44:29;;;;;;;0.20;0.20;;;;;;;;;;5050718;28;20146;-67
2022/06/02 01:47:01;;;;;;;0.45;0.32;;;;;;;;;;5048097;28;20120;-67
2022/06/02 01:49:44;;;;;;;0.10;0.10;;;;;;;;;;5049913;28;20076;-67
2022/06/02 01:52:20;;;;;;;0.00;0.00;;;;;;;;;;5049150;28;20468;-67
2022/06/02 01:55:07;;;;;;;0.17;0.17;;;;;;;;;;5049000;28;20049;-67
2022/06/02 01:57:46;;;;;;;0.30;0.30;;;;;;;;;;5042799;28;20147;-67
2022/06/02 02:00:15;;;;;;;0.22;0.22;;;;;;;;;;5045941;28;20128;-67
2022/06/02 02:02:50;;;;;;;0.10;0.10;;;;;;;;;;5049831;28;20045;-67
2022/06/02 02:05:28;;;;;;;0.10;0.10;;;;;;;;;;5048520;28;20404;-67
2022/06/02 02:08:05;;;;;;;0.20;0.20;;;;;;;;;;5046864;28;20053;-67
2022/06/02 02:10:39;;;;;;;0.10;0.10;;;;;;;;;;5049524;28;20136;-67
2022/06/02 02:13:14;;;;;;;0.22;0.20;;;;;;;;;;5049738;28;20132;-67
2022/06/02 02:15:47;;;;;;;0.20;0.20;;;;;;;;;;5046994;28;20045;-67
2022/06/02 02:18:26;;;;;;;0.10;0.10;;;;;;;;;;5046582;28;20339;-67
2022/06/02 02:21:00;;;;;;;0.20;0.20;;;;;;;;;;5039583;28;20083;-67
2022/06/02 02:23:32;;;;;;;0.10;0.10;;;;;;;;;;5048597;28;20076;-67
2022/06/02 02:26:02;;;;;;;0.00;0.00;;;;;;;;;;5048024;28;20091;-67
2022/06/02 02:28:41;;;;;;;0.00;0.00;;;;;;;;;;5059323;28;20068;-67
2022/06/02 02:31:15;;;;;;;0.03;0.03;;;;;;;;;;5053009;28;20080;-67
2022/06/02 02:33:50;;;;;;;0.17;0.17;;;;;;;;;;5049160;28;20037;-67
2022/06/02 02:36:22;;;;;;;0.10;0.10;;;;;;;;;;5049791;28;20047;-67
2022/06/02 02:38:53;;;;;;;0.10;0.10;;;;;;;;;;5048491;28;20574;-67
2022/06/02 02:41:25;;;;;;;0.30;0.30;;;;;;;;;;5049689;28;20125;-67
2022/06/02 02:43:57;;;;;;;1.08;0.75;;;;;;;;;;5049311;28;20051;-67
2022/06/02 02:46:32;;;;;;;0.80;0.47;;;;;;;;;;5049581;28;20534;-67
2022/06/02 02:49:04;;;;;;;0.25;0.25;;;;;;;;;;5044658;28;20041;-67
2022/06/02 02:51:39;;;;;;;0.10;0.10;;;;;;;;;;5048757;28;20140;-67
2022/06/02 02:54:12;;;;;;;0.00;0.00;;;;;;;;;;5048695;28;20055;-67
2022/06/02 02:56:42;;;;;;;0.10;0.10;;;;;;;;;;5047952;28;20071;-67
2022/06/02 02:59:17;;;;;;;0.30;0.30;;;;;;;;;;5045665;28;20111;-67
2022/06/02 03:01:49;;;;;;;0.20;0.20;;;;;;;;;;5047089;28;20466;-67
2022/06/02 03:04:26;;;;;;;0.10;0.10;;;;;;;;;;5049989;28;20750;-67
2022/06/02 03:06:55;;;;;;;0.10;0.10;;;;;;;;;;5044429;28;20124;-67
2022/06/02 03:09:26;;;;;;;0.10;0.10;;;;;;;;;;5047465;28;20040;-67
2022/06/02 03:12:00;;;;;;;0.10;0.10;;;;;;;;;;5047710;28;20057;-67
2022/06/02 03:14:34;;;;;;;0.30;0.30;;;;;;;;;;5044057;28;20067;-67
2022/06/02 03:17:08;;;;;;;0.80;0.38;;;;;;;;;;5042338;28;20056;-67
2022/06/02 03:19:45;;;;;;;0.00;0.00;;;;;;;;;;5046895;28;20144;-67
2022/06/02 03:22:18;;;;;;;0.10;0.10;;;;;;;;;;5046394;28;20159;-67
2022/06/02 03:24:55;;;;;;;0.17;0.10;;;;;;;;;;5044977;28;21201;-67
2022/06/02 03:27:34;;;;;;;0.10;0.10;;;;;;;;;;5044318;28;20048;-67
2022/06/02 03:30:08;;;;;;;0.00;0.00;;;;;;;;;;5051999;28;20127;-67
2022/06/02 03:32:43;;;;;;;0.10;0.10;;;;;;;;;;5046804;28;20073;-67
2022/06/02 03:35:19;;;;;;;0.00;0.00;;;;;;;;;;5048252;28;20131;-67
2022/06/02 03:37:52;;;;;;;0.00;0.00;;;;;;;;;;5044934;28;20471;-67
2022/06/02 03:40:36;;;;;;;0.28;0.28;;;;;;;;;;5048707;28;20131;-67
2022/06/02 03:43:09;;;;;;;0.10;0.10;;;;;;;;;;5045814;28;20132;-67
2022/06/02 03:45:45;;;;;;;0.00;0.00;;;;;;;;;;5044420;28;20048;-67
2022/06/02 03:48:20;;;;;;;0.20;0.20;;;;;;;;;;5032878;28;20049;-67
2022/06/02 03:50:53;;;;;;;0.00;0.00;;;;;;;;;;5044056;28;20149;-67
2022/06/02 03:53:31;;;;;;;0.10;0.10;;;;;;;;;;5046697;28;20112;-67
2022/06/02 03:56:06;;;;;;;0.10;0.10;;;;;;;;;;5046674;28;20083;-67
2022/06/02 03:58:42;;;;;;;0.28;0.20;;;;;;;;;;5047673;28;20052;-67
2022/06/02 04:01:13;;;;;;;0.10;0.10;;;;;;;;;;5047758;28;20049;-67
2022/06/02 04:03:51;;;;;;;0.00;0.00;;;;;;;;;;5047246;28;20037;-67
2022/06/02 04:06:27;;;;;;;0.00;0.00;;;;;;;;;;5048161;28;20073;-67
2022/06/02 04:09:03;;;;;;;0.00;0.00;;;;;;;;;;5045407;28;20057;-67
2022/06/02 04:14:27;;;;;;;0.00;0.00;;;;;;;;;;5044383;28;20512;-67
2022/06/02 04:16:59;;;;;;;0.10;0.10;;;;;;;;;;5047279;28;20045;-67
2022/06/02 04:22:40;;;;;;;0.00;0.00;;;;;;;;;;5044082;28;20124;-67
2022/06/02 04:25:16;;;;;;;0.63;0.63;;;;;;;;;;5042548;28;20071;-67
2022/06/02 04:27:48;;;;;;;0.00;0.00;;;;;;;;;;5042854;28;20085;-67
2022/06/02 04:30:18;;;;;;;0.00;0.00;;;;;;;;;;5038902;28;20076;-67
2022/06/02 04:32:48;;;;;;;0.47;0.30;;;;;;;;;;5050189;28;20552;-67
2022/06/02 04:35:21;;;;;;;0.15;0.15;;;;;;;;;;5045071;28;20087;-67
2022/06/02 04:37:55;;;;;;;0.05;0.05;;;;;;;;;;5049392;28;20488;-67
2022/06/02 04:40:29;;;;;;;0.22;0.22;;;;;;;;;;5044237;28;20142;-67
2022/06/02 04:43:01;;;;;;;0.00;0.00;;;;;;;;;;5048677;28;20480;-67
2022/06/02 04:45:32;;;;;;;0.10;0.10;;;;;;;;;;5049368;28;20056;-67
2022/06/02 04:48:04;;;;;;;0.10;0.10;;;;;;;;;;5045071;28;20570;-67
2022/06/02 04:50:39;;;;;;;0.10;0.10;;;;;;;;;;5049410;28;20390;-67
2022/06/02 04:53:12;;;;;;;0.10;0.10;;;;;;;;;;5045553;28;20048;-67
2022/06/02 04:55:46;;;;;;;0.05;0.05;;;;;;;;;;5044017;28;20473;-68
2022/06/02 04:58:18;;;;;;;0.10;0.10;;;;;;;;;;5036325;28;20653;-67
2022/06/02 05:00:51;;;;;;;0.20;0.20;;;;;;;;;;5049754;28;20049;-67
2022/06/02 05:03:24;;;;;;;0.10;0.10;;;;;;;;;;5047285;28;20045;-67
2022/06/02 05:05:59;;;;;;;0.10;0.10;;;;;;;;;;5049993;28;20133;-67
2022/06/02 05:08:38;;;;;;;0.10;0.10;;;;;;;;;;5038725;28;20083;-67
2022/06/02 05:11:14;;;;;;;0.00;0.00;;;;;;;;;;5042379;28;20389;-67
2022/06/02 05:13:47;;;;;;;0.15;0.15;;;;;;;;;;5046380;28;20132;-67
2022/06/02 05:16:20;;;;;;;0.00;0.00;;;;;;;;;;5049451;28;20469;-67
2022/06/02 05:19:09;;;;;;;0.20;0.20;;;;;;;;;;5043634;28;20048;-67
2022/06/02 05:21:47;;;;;;;0.00;0.00;;;;;;;;;;5050982;28;20052;-67
2022/06/02 05:24:23;;;;;;;0.00;0.00;;;;;;;;;;5046343;28;20045;-67
2022/06/02 05:27:12;;;;;;;0.20;0.20;;;;;;;;;;5046148;28;20470;-67
2022/06/02 05:29:50;;;;;;;0.20;0.20;;;;;;;;;;5042322;28;20469;-67
2022/06/02 05:32:30;;;;;;;0.10;0.10;;;;;;;;;;5037340;28;21714;-67
2022/06/02 05:35:19;;;;;;;0.10;0.10;;;;;;;;;;5046851;28;20088;-67
2022/06/02 05:38:00;;;;;;;0.22;0.22;;;;;;;;;;5049741;28;20508;-67
2022/06/02 05:40:34;;;;;;;0.00;0.00;;;;;;;;;;5049430;28;20122;-67
2022/06/02 05:43:11;;;;;;;0.73;0.45;;;;;;;;;;5033216;28;20060;-67
2022/06/02 05:45:49;;;;;;;0.30;0.30;;;;;;;;;;5054799;28;20087;-67
2022/06/02 05:48:27;;;;;;;0.10;0.10;;;;;;;;;;5050411;28;20106;-67
2022/06/02 05:51:01;;;;;;;0.10;0.10;;;;;;;;;;5051888;28;20091;-67
2022/06/02 05:53:35;;;;;;;0.10;0.10;;;;;;;;;;5049283;28;20048;-67
2022/06/02 05:56:14;;;;;;;0.10;0.10;;;;;;;;;;5038798;28;20136;-67
2022/06/02 05:58:50;;;;;;;0.08;0.08;;;;;;;;;;5055124;28;20092;-67
2022/06/02 06:01:23;;;;;;;0.00;0.00;;;;;;;;;;5051748;28;20076;-66
2022/06/02 06:03:56;;;;;;;0.13;0.13;;;;;;;;;;5051193;28;20045;-67
2022/06/02 06:06:28;;;;;;;0.00;0.00;;;;;;;;;;5048412;28;20076;-67
2022/06/02 06:09:03;;;;;;;0.15;0.15;;;;;;;;;;5043451;28;20048;-67
2022/06/02 06:11:31;;;;;;;;;;;;;;;;;;5047206;28;20060;-67
2022/06/02 06:14:14;;;;;;;2.45;1.58;;;;;;;;;;5049283;28;20176;-67
2022/06/02 06:16:45;;;;;;;0.10;0.10;;;;;;;;;;5043746;28;20411;-67
2022/06/02 06:19:22;;;;;;;1.55;0.40;;;;;;;;;;5049569;28;20060;-67
2022/06/02 06:21:57;;;;;;;0.10;0.10;;;;;;;;;;5049578;28;20065;-67
2022/06/02 06:24:32;;;;;;;0.45;0.22;;;;;;;;;;5041109;28;20096;-67
2022/06/02 06:27:04;;;;;;;0.10;0.10;;;;;;;;;;5050797;28;20187;-67
2022/06/02 06:29:43;;;;;;;0.10;0.10;;;;;;;;;;5047200;28;20402;-67
2022/06/02 06:32:19;;;;;;;0.57;0.57;;;;;;;;;;5045525;28;20562;-67
2022/06/02 06:34:52;;;;;;;0.17;0.17;;;;;;;;;;5051740;28;20103;-67
2022/06/02 06:37:33;;;;;;;0.00;0.00;;;;;;;;;;5050931;28;20057;-67
2022/06/02 06:40:17;;;;;;;0.00;0.00;;;;;;;;;;5051433;28;20041;-67
2022/06/02 06:42:52;;;;;;;0.20;0.20;;;;;;;;;;5051308;28;20076;-68
2022/06/02 06:45:25;;;;;;;0.10;0.10;;;;;;;;;;5049831;28;20102;-67
2022/06/02 06:47:54;;;;;;;0.32;0.32;;;;;;;;;;5050452;28;20110;-67
2022/06/02 06:50:25;;;;;;;0.08;0.08;;;;;;;;;;5049181;28;20046;-67
2022/06/02 06:53:02;;;;;;;0.10;0.10;;;;;;;;;;5051353;28;20505;-67
2022/06/02 06:55:36;;;;;;;0.17;0.17;;;;;;;;;;5049923;28;20314;-68
2022/06/02 06:58:10;;;;;;;0.10;0.10;;;;;;;;;;5050387;28;20056;-68
2022/06/02 07:00:42;;;;;;;1.80;0.50;;;;;;;;;;5052129;28;20057;-68
2022/06/02 07:03:17;;;;;;;0.10;0.10;;;;;;;;;;5041482;28;20612;-68
2022/06/02 07:05:48;;;;;;;0.00;0.00;;;;;;;;;;5047310;28;20049;-68
2022/06/02 07:08:23;;;;;;;0.10;0.10;;;;;;;;;;5042464;28;20047;-68
2022/06/02 07:10:56;;;;;;;0.20;0.20;;;;;;;;;;5050732;28;20617;-68
2022/06/02 07:13:26;;;;;;;0.20;0.20;;;;;;;;;;5048076;28;20496;-68
2022/06/02 07:15:58;;;;;;;1.20;1.10;;;;;;;;;;5047056;28;20049;-68
2022/06/02 07:18:31;;;;;;;0.20;0.20;;;;;;;;;;5046881;28;20057;-68
2022/06/02 07:21:03;;;;;;;0.00;0.00;;;;;;;;;;5038631;28;20049;-68
2022/06/02 07:23:40;;;;;;;0.00;0.00;;;;;;;;;;5036567;28;20045;-68
2022/06/02 07:26:09;;;;;;;;;;;;;;;;;;5046781;28;20051;-68
2022/06/02 07:28:41;;;;;;;0.03;0.03;;;;;;;;;;5045281;28;20419;-68
2022/06/02 07:31:18;;;;;;;0.08;0.08;;;;;;;;;;5048273;28;20558;-68
2022/06/02 07:33:54;;;;;;;0.20;0.20;;;;;;;;;;5045620;28;20065;-68
2022/06/02 07:36:32;;;;;;;424.98;177.15;;;;;;;;;;5047606;28;20044;-68
2022/06/02 07:39:27;;;;;;;0.25;0.20;;;;;;;;;;5042808;28;20057;-68
2022/06/02 07:42:06;;;;;;;0.05;0.05;;;;;;;;;;5046545;28;20076;-68
2022/06/02 07:44:53;;;;;;;0.17;0.17;;;;;;;;;;5042674;28;20057;-68
2022/06/02 07:47:37;;;;;;;0.10;0.10;;;;;;;;;;5050102;28;20049;-68
2022/06/02 07:50:10;;;;;;;0.30;0.30;;;;;;;;;;5044578;28;20073;-68
2022/06/02 07:52:44;;;;;;;0.10;0.10;;;;;;;;;;5049329;28;20145;-68
2022/06/02 07:55:19;;;;;;;0.70;0.70;;;;;;;;;;5049108;28;20041;-68
2022/06/02 07:57:51;;;;;;;0.10;0.10;;;;;;;;;;5044819;28;20467;-68
2022/06/02 08:00:20;;;;;;;0.30;0.30;;;;;;;;;;5045581;28;20059;-68
2022/06/02 08:03:08;;;;;;;120.03;10.23;;;;;;;;;;5046599;28;20312;-68
2022/06/02 08:05:41;;;;;;;0.08;0.08;;;;;;;;;;5048161;28;20049;-67
2022/06/02 08:08:18;;;;;;;0.38;0.38;;;;;;;;;;5050023;28;20096;-67
2022/06/02 08:11:11;;;;;;;0.10;0.10;;;;;;;;;;5049232;28;20056;-67
2022/06/02 08:13:42;;;;;;;0.32;0.32;;;;;;;;;;5053855;28;20052;-67
2022/06/02 08:16:13;;;;;;;0.10;0.10;;;;;;;;;;5057382;28;20091;-67
2022/06/02 08:18:48;;;;;;;0.10;0.10;;;;;;;;;;5047570;28;20114;-68
2022/06/02 08:21:25;;;;;;;0.93;0.63;;;;;;;;;;5062419;28;20064;-67
2022/06/02 08:24:12;;;;;;;0.57;0.10;;;;;;;;;;5052832;28;20041;-67
2022/06/02 08:26:43;;;;;;;0.10;0.10;;;;;;;;;;5050579;28;20076;-67
2022/06/02 08:29:23;;;;;;;0.10;0.10;;;;;;;;;;5049358;28;20096;-67
2022/06/02 08:32:01;;;;;;;0.75;0.75;;;;;;;;;;5053969;28;20045;-67
2022/06/02 08:34:35;;;;;;;0.10;0.10;;;;;;;;;;5052910;28;20049;-67
2022/06/02 08:37:16;;;;;;;1.03;0.37;;;;;;;;;;5049953;28;20111;-67
2022/06/02 08:39:55;;;;;;;4.13;0.93;;;;;;;;;;5051155;28;20775;-67
2022/06/02 08:42:42;;;;;;;0.00;0.00;;;;;;;;;;5053335;28;20140;-67
2022/06/02 08:45:20;;;;;;;0.30;0.30;;;;;;;;;;5053050;28;20053;-67
2022/06/02 08:48:08;;;;;;;0.20;0.20;;;;;;;;;;5049757;28;20068;-67
2022/06/02 08:50:47;;;;;;;0.17;0.17;;;;;;;;;;5051628;28;20166;-67
2022/06/02 08:53:34;;;;;;;0.13;0.13;;;;;;;;;;5052881;28;20048;-67
2022/06/02 08:56:20;;;;;;;0.52;0.52;;;;;;;;;;5049862;28;20152;-67
2022/06/02 08:59:04;;;;;;;0.00;0.00;;;;;;;;;;5035529;28;20057;-67
2022/06/02 09:01:53;;;;;;;0.10;0.10;;;;;;;;;;5052279;28;20080;-68
2022/06/02 09:04:38;;;;;;;0.00;0.00;;;;;;;;;;5051355;28;20436;-68
2022/06/02 09:07:32;;;;;;;0.00;0.00;;;;;;;;;;5040490;28;20140;-68
2022/06/02 09:10:40;;;;;;;0.00;0.00;;;;;;;;;;5051493;28;20049;-68
2022/06/02 09:13:23;;;;;;;0.00;0.00;;;;;;;;;;5030163;28;20049;-68
2022/06/02 09:16:13;;;;;;;0.80;0.47;;;;;;;;;;5053211;28;20044;-68
2022/06/02 09:18:56;;;;;;;0.00;0.00;;;;;;;;;;5038734;28;20092;-68
2022/06/02 09:21:43;;;;;;;0.10;0.10;;;;;;;;;;5046425;28;20053;-67
2022/06/02 09:24:20;;;;;;;0.00;0.00;;;;;;;;;;5051082;28;20056;-67
2022/06/02 09:26:57;;;;;;;0.00;0.00;;;;;;;;;;5051742;28;20055;-68
2022/06/02 09:29:29;;;;;;;0.20;0.20;;;;;;;;;;5041122;28;20048;-68
2022/06/02 09:32:16;;;;;;;98.45;30.08;;;;;;;;;;5050257;28;20064;-67
2022/06/02 09:35:04;;;;;;;0.10;0.10;;;;;;;;;;5048070;28;20068;-68
2022/06/02 09:37:44;;;;;;;0.20;0.20;;;;;;;;;;5042227;28;20603;-67
2022/06/02 09:40:27;;;;;;;0.05;0.05;;;;;;;;;;5040681;28;20073;-67
2022/06/02 09:43:03;;;;;;;0.08;0.08;;;;;;;;;;5052032;28;20045;-67
2022/06/02 09:45:43;;;;;;;0.10;0.10;;;;;;;;;;5051150;28;20076;-67
2022/06/02 09:48:41;;;;;;;0.00;0.00;;;;;;;;;;5051760;28;20377;-67
2022/06/02 09:51:28;;;;;;;0.00;0.00;;;;;;;;;;5047360;28;20037;-67
2022/06/02 09:54:04;;;;;;;0.10;0.10;;;;;;;;;;5053197;28;20610;-67
2022/06/02 09:56:43;;;;;;;0.28;0.28;;;;;;;;;;5051840;28;20053;-67
2022/06/02 09:59:18;;;;;;;0.10;0.10;;;;;;;;;;5051008;28;20041;-68
2022/06/02 10:01:56;;;;;;;0.90;0.63;;;;;;;;;;5052556;28;20481;-68
2022/06/02 10:04:44;;;;;;;0.57;0.52;;;;;;;;;;5047269;28;20060;-67
2022/06/02 10:07:22;;;;;;;0.22;0.22;;;;;;;;;;5043683;28;20056;-67
2022/06/02 10:10:09;;;;;;;0.00;0.00;;;;;;;;;;5052394;28;20055;-67
2022/06/02 10:12:55;;;;;;;0.00;0.00;;;;;;;;;;5037403;28;20482;-67
2022/06/02 10:15:35;;;;;;;0.10;0.10;;;;;;;;;;5045935;28;20144;-67
2022/06/02 10:18:13;;;;;;;0.22;0.17;;;;;;;;;;5048320;28;20064;-68
2022/06/02 10:20:50;;;;;;;0.00;0.00;;;;;;;;;;5050952;28;20052;-67
2022/06/02 10:23:33;;;;;;;0.50;0.15;;;;;;;;;;5051233;28;20141;-68
2022/06/02 10:26:07;;;;;;;0.52;0.52;;;;;;;;;;5016270;28;20041;-68
2022/06/02 10:28:50;;;;;;;0.20;0.20;;;;;;;;;;5044678;28;20148;-68
2022/06/02 10:31:33;;;;;;;0.00;0.00;;;;;;;;;;5032841;28;20132;-68
2022/06/02 10:34:16;;;;;;;0.52;0.52;;;;;;;;;;5043959;28;20135;-67
2022/06/02 10:37:00;;;;;;;0.65;0.55;;;;;;;;;;5049988;28;20045;-67
2022/06/02 10:39:44;;;;;;;0.20;0.20;;;;;;;;;;5037592;28;20048;-67
2022/06/02 10:42:19;;;;;;;0.00;0.00;;;;;;;;;;5050023;28;20072;-67
2022/06/02 10:44:57;;;;;;;0.00;0.00;;;;;;;;;;5050372;28;20072;-67
2022/06/02 10:47:36;;;;;;;0.28;0.20;;;;;;;;;;5048683;28;20069;-67
2022/06/02 10:50:19;;;;;;;0.10;0.10;;;;;;;;;;5037970;28;20090;-67
2022/06/02 10:53:05;;;;;;;0.10;0.10;;;;;;;;;;5046354;28;20053;-67
2022/06/02 10:55:47;;;;;;;0.20;0.13;;;;;;;;;;5050833;28;20045;-67
2022/06/02 10:58:39;;;;;;;0.10;0.10;;;;;;;;;;5049770;28;20563;-67
2022/06/02 11:01:35;;;;;;;0.30;0.30;;;;;;;;;;5052363;28;20052;-67
2022/06/02 11:04:22;;;;;;;0.00;0.00;;;;;;;;;;4992692;28;20045;-67
2022/06/02 11:07:23;;;;;;;0.00;0.00;;;;;;;;;;5043441;28;20050;-67
2022/06/02 11:10:08;;;;;;;0.10;0.10;;;;;;;;;;4957193;28;20070;-68
2022/06/02 11:12:49;;;;;;;0.00;0.00;;;;;;;;;;4966495;28;20091;-67
2022/06/02 11:15:38;;;;;;;0.00;0.00;;;;;;;;;;5018074;28;20083;-67
2022/06/02 11:18:35;;;;;;;0.03;0.03;;;;;;;;;;5042110;28;20052;-67
2022/06/02 11:21:22;;;;;;;0.30;0.30;;;;;;;;;;5049415;28;20041;-67
2022/06/02 11:24:05;;;;;;;44.95;3.60;;;;;;;;;;5048508;28;20106;-67
2022/06/02 11:26:50;;;;;;;0.25;0.25;;;;;;;;;;5042602;28;20136;-67
2022/06/02 11:29:36;;;;;;;0.52;0.35;;;;;;;;;;5051941;28;20084;-67
2022/06/02 11:32:19;;;;;;;0.10;0.10;;;;;;;;;;5051780;28;20044;-67
2022/06/02 11:35:17;;;;;;;0.20;0.10;;;;;;;;;;5042490;28;20090;-68
2022/06/02 11:37:56;;;;;;;0.10;0.10;;;;;;;;;;5048483;28;20052;-68
2022/06/02 11:40:41;;;;;;;;;;;;;;;;;;5051483;28;20053;-68
2022/06/02 11:43:14;;;;;;;0.13;0.00;;;;;;;;;;5054315;28;19929;-68
2022/06/02 11:45:57;;;;;;;0.00;0.00;;;;;;;;;;5054947;28;20083;-68
2022/06/02 11:48:43;;;;;;;0.40;0.40;;;;;;;;;;5004515;28;20068;-68
2022/06/02 11:51:20;;;;;;;0.00;0.00;;;;;;;;;;5031210;28;20080;-67
2022/06/02 11:53:54;;;;;;;0.10;0.10;;;;;;;;;;5030897;28;20056;-66
2022/06/02 11:56:29;;;;;;;0.28;0.20;;;;;;;;;;5024535;28;20512;-66
2022/06/02 11:59:17;;;;;;;1.13;0.52;;;;;;;;;;5032023;28;20124;-66
2022/06/02 12:02:06;;;;;;;0.10;0.10;;;;;;;;;;5033724;28;20413;-66
2022/06/02 12:04:51;;;;;;;0.10;0.10;;;;;;;;;;5032330;28;20053;-66
2022/06/02 12:07:19;;;;;;;;;;;;;;;;;;5023267;28;20057;-66
2022/06/02 12:09:55;;;;;;;0.38;0.38;;;;;;;;;;5021254;28;19929;-66
2022/06/02 12:12:46;;;;;;;0.80;0.63;;;;;;;;;;5028874;28;20048;-66
2022/06/02 12:15:25;;;;;;;0.00;0.00;;;;;;;;;;5033657;28;20081;-67
2022/06/02 12:18:14;;;;;;;0.10;0.10;;;;;;;;;;5032143;28;20045;-67
2022/06/02 12:20:52;;;;;;;2.50;0.10;;;;;;;;;;5050935;28;20473;-68
2022/06/02 12:23:29;;;;;;;0.00;0.00;;;;;;;;;;5050343;28;20053;-67
2022/06/02 12:26:01;;;;;;;0.20;0.10;;;;;;;;;;5055722;28;20159;-67
2022/06/02 12:28:52;;;;;;;0.00;0.00;;;;;;;;;;5052449;28;20072;-67
2022/06/02 12:31:34;;;;;;;0.15;0.13;;;;;;;;;;5048805;28;20484;-68
2022/06/02 12:34:11;;;;;;;0.13;0.13;;;;;;;;;;5048317;28;20041;-67
2022/06/02 12:36:57;;;;;;;0.10;0.10;;;;;;;;;;5044453;28;20044;-67
2022/06/02 12:39:40;;;;;;;0.00;0.00;;;;;;;;;;5024144;28;20106;-68
2022/06/02 12:42:32;;;;;;;0.30;0.30;;;;;;;;;;5045209;28;20052;-67
2022/06/02 12:45:18;;;;;;;0.05;0.05;;;;;;;;;;5048114;28;20106;-67
2022/06/02 12:47:58;;;;;;;0.15;0.15;;;;;;;;;;5049649;28;20041;-68
2022/06/02 12:50:36;;;;;;;0.10;0.00;;;;;;;;;;5049372;28;20040;-67
2022/06/02 12:53:21;;;;;;;0.08;0.08;;;;;;;;;;5051449;28;20061;-67
2022/06/02 12:56:02;;;;;;;151.45;16.48;;;;;;;;;;5049376;28;20057;-67
2022/06/02 12:58:48;;;;;;;0.00;0.00;;;;;;;;;;5047817;28;20053;-67
2022/06/02 13:01:25;;;;;;;1.13;0.85;;;;;;;;;;5048631;28;20098;-67
2022/06/02 13:04:11;;;;;;;0.00;0.00;;;;;;;;;;5051096;28;20044;-67
2022/06/02 13:06:52;;;;;;;0.43;0.43;;;;;;;;;;5045530;28;20049;-67
2022/06/02 13:09:31;;;;;;;0.35;0.32;;;;;;;;;;5022002;28;20061;-68
2022/06/02 13:12:13;;;;;;;0.20;0.13;;;;;;;;;;5046847;28;20089;-67
2022/06/02 13:14:47;;;;;;;0.13;0.13;;;;;;;;;;5039135;28;20119;-67
2022/06/02 13:17:22;;;;;;;0.00;0.00;;;;;;;;;;5049507;28;20041;-67
2022/06/02 13:20:05;;;;;;;0.08;0.08;;;;;;;;;;5046040;28;20791;-68
2022/06/02 13:22:57;;;;;;;0.10;0.10;;;;;;;;;;5042883;28;20471;-68
2022/06/02 13:25:41;;;;;;;0.65;0.40;;;;;;;;;;5049145;28;20053;-68
2022/06/02 13:28:25;;;;;;;0.00;0.00;;;;;;;;;;5030753;28;20111;-68
2022/06/02 13:31:12;;;;;;;0.20;0.17;;;;;;;;;;5050601;28;20064;-67
2022/06/02 13:33:54;;;;;;;0.90;0.90;;;;;;;;;;5052628;28;20045;-67
2022/06/02 13:36:33;;;;;;;6.13;5.93;;;;;;;;;;5054381;28;20048;-67
2022/06/02 13:39:25;;;;;;;2.92;2.83;;;;;;;;;;5044764;28;20040;-67
2022/06/02 13:42:05;;;;;;;5.78;5.57;;;;;;;;;;5048116;28;20076;-67
2022/06/02 13:44:52;;;;;;;33.72;32.25;;;;;;;;;;5049109;28;20136;-67
2022/06/02 13:47:33;;;;;;;53.28;50.35;;;;;;;;;;5047272;28;20553;-68
2022/06/02 13:50:25;;;;;;;1999.90;999.90;;;;;;;;;;5046720;28;20551;-68
2022/06/02 13:53:12;;;;;;;1999.90;999.90;;;;;;;;;;5042754;28;20053;-68
2022/06/02 13:58:50;;;;;;;1999.90;999.90;;;;;;;;;;5044813;28;20046;-68
2022/06/02 14:01:28;;;;;;;1999.90;999.90;;;;;;;;;;5031932;28;20053;-68
2022/06/02 14:04:17;;;;;;;1999.90;999.90;;;;;;;;;;5042339;28;20544;-68
2022/06/02 14:06:50;;;;;;;1999.90;999.90;;;;;;;;;;5040563;28;20041;-68
2022/06/02 14:09:27;;;;;;;1999.90;999.90;;;;;;;;;;5026668;28;20505;-68
2022/06/02 14:12:03;;;;;;;1999.90;999.90;;;;;;;;;;5047724;28;20372;-68
2022/06/02 14:14:48;;;;;;;1999.90;999.90;;;;;;;;;;5049409;28;20539;-67
2022/06/02 14:17:22;;;;;;;1999.90;999.90;;;;;;;;;;5050423;28;20048;-67
2022/06/02 14:20:04;;;;;;;1999.90;999.90;;;;;;;;;;5048440;28;20517;-68
2022/06/02 14:22:41;;;;;;;1999.90;999.90;;;;;;;;;;5043631;28;20318;-68
2022/06/02 14:25:12;;;;;;;1999.90;999.90;;;;;;;;;;5047634;28;20057;-67
2022/06/02 14:27:45;;;;;;;1999.90;999.90;;;;;;;;;;5048620;28;20274;-67
2022/06/02 14:30:16;;;;;;;1999.90;999.90;;;;;;;;;;5047657;28;20122;-67
2022/06/02 14:32:51;;;;;;;1999.90;999.90;;;;;;;;;;5049394;28;20445;-67
2022/06/02 14:35:44;;;;;;;1999.90;999.90;;;;;;;;;;5053082;28;20041;-67
2022/06/02 14:38:20;;;;;;;1999.90;999.90;;;;;;;;;;5039223;28;20083;-68
2022/06/02 14:40:52;;;;;;;1999.90;999.90;;;;;;;;;;5052055;28;20080;-68
2022/06/02 14:43:30;;;;;;;1999.90;999.90;;;;;;;;;;5046203;28;20092;-67
2022/06/02 14:46:16;;;;;;;1999.90;999.90;;;;;;;;;;5049179;28;20063;-67
2022/06/02 14:48:53;;;;;;;1999.90;999.90;;;;;;;;;;5047376;28;20045;-68
2022/06/02 14:51:23;;;;;;;1999.90;999.90;;;;;;;;;;5048470;28;20048;-68
2022/06/02 14:54:10;;;;;;;1999.90;999.90;;;;;;;;;;5042518;28;20516;-67
2022/06/02 14:56:48;;;;;;;1999.90;999.90;;;;;;;;;;5047939;28;20049;-67
2022/06/02 14:59:25;;;;;;;1999.90;999.90;;;;;;;;;;5047608;28;20045;-67
2022/06/02 15:01:56;;;;;;;1999.90;999.90;;;;;;;;;;5045954;28;20041;-67
2022/06/02 15:04:31;;;;;;;1999.90;999.90;;;;;;;;;;5041250;28;20114;-68
2022/06/02 15:07:13;;;;;;;1999.90;999.90;;;;;;;;;;5042405;28;20045;-67
2022/06/02 15:09:52;;;;;;;1999.90;999.90;;;;;;;;;;5043184;28;20056;-68
2022/06/02 15:12:33;;;;;;;1999.90;999.90;;;;;;;;;;5043549;28;20045;-67
2022/06/02 15:15:16;;;;;;;1999.90;999.90;;;;;;;;;;5041363;28;20515;-68
2022/06/02 15:17:50;;;;;;;1999.90;999.90;;;;;;;;;;5032685;28;20102;-69
2022/06/02 15:20:24;;;;;;;1999.90;999.90;;;;;;;;;;5049922;28;20127;-68
2022/06/02 15:23:36;;;;;;;1999.90;999.90;;;;;;;;;;5039466;28;20406;-68
2022/06/02 15:26:14;;;;;;;1999.90;999.90;;;;;;;;;;5046881;28;20049;-68
2022/06/02 15:29:04;;;;;;;1999.90;999.90;;;;;;;;;;5042491;28;20057;-72
2022/06/02 15:31:34;;;;;;;253.30;231.68;;;;;;;;;;5038796;28;20575;-70
2022/06/02 15:34:29;;;;;;;0.10;0.10;;;;;;;;;;5044136;28;20389;-73
2022/06/02 15:37:26;;;;;;;0.10;0.10;;;;;;;;;;5043803;28;20069;-71
2022/06/02 15:40:10;;;;;;;0.10;0.10;;;;;;;;;;5050525;28;20103;-69
2022/06/02 15:42:45;;;;;;;139.43;124.63;;;;;;;;;;5049155;28;20049;-72
2022/06/02 15:45:25;;;;;;;0.00;0.00;;;;;;;;;;5046369;28;20103;-71
2022/06/02 15:48:06;;;;;;;0.85;0.85;;;;;;;;;;5038924;28;20132;-69
2022/06/02 15:50:44;;;;;;;0.00;0.00;;;;;;;;;;5048250;28;20135;-69
2022/06/02 15:53:28;;;;;;;387.33;76.28;;;;;;;;;;5045006;28;20068;-72